Time;durP1;ratioP1;P1;durP2;ratioP2;P2;SDS_P1;SDS_P2;PMS_P1;PMS_P2;Temp;Humidity;BMP_temperature;BMP_pressure;BME280_temperature;BME280_humidity;BME280_pressure;Samples;Min_cycle;Max_cycle;Signal;HPM_P1;HPM_P2
2021/09/03 00:00:07;;;;;;;4.03;2.30;;;;;;;19.47;46.21;101945.30;1503275;94;21110;-48
2021/09/03 00:02:36;;;;;;;;;;;;;;;19.46;46.01;101946.24;1405442;101;21154;-48
2021/09/03 00:05:09;;;;;;;3.45;2.05;;;;;;;19.46;46.10;101942.28;1409352;100;20176;-48
2021/09/03 00:07:36;;;;;;;3.92;2.22;;;;;;;19.46;46.49;101946.24;1395907;101;21132;-48
2021/09/03 00:10:04;;;;;;;5.17;2.50;;;;;;;19.47;46.65;101942.66;1403868;100;21144;-49
2021/09/03 00:12:33;;;;;;;4.10;2.00;;;;;;;19.47;46.22;101943.98;1399798;100;21625;-49
2021/09/03 00:15:00;;;;;;;4.03;2.33;;;;;;;19.44;46.21;101946.77;1404375;100;21614;-48
2021/09/03 00:17:26;;;;;;;4.53;2.65;;;;;;;19.42;45.94;101943.33;1455850;97;21145;-49
2021/09/03 00:19:54;;;;;;;4.22;2.22;;;;;;;19.40;46.03;101939.89;1483909;96;21114;-48
2021/09/03 00:22:20;;;;;;;4.53;2.30;;;;;;;19.36;45.97;101942.25;1442481;97;21089;-48
2021/09/03 00:24:47;;;;;;;3.52;2.17;;;;;;;19.36;46.12;101946.66;1451547;97;21126;-48
2021/09/03 00:27:14;;;;;;;4.97;2.62;;;;;;;19.34;46.05;101937.49;1473486;96;21102;-48
2021/09/03 00:29:40;;;;;;;3.60;2.22;;;;;;;19.32;46.14;101934.47;1454870;96;21120;-48
2021/09/03 00:32:07;;;;;;;7.15;2.92;;;;;;;19.28;45.95;101933.74;1460622;96;21179;-48
2021/09/03 00:34:34;;;;;;;3.75;2.27;;;;;;;19.27;46.33;101939.92;1443155;97;21655;-48
2021/09/03 00:37:01;;;;;;;5.80;2.60;;;;;;;19.29;46.53;101949.09;1466147;96;21236;-49
2021/09/03 00:39:28;;;;;;;6.47;2.50;;;;;;;19.32;46.65;101949.86;1468646;97;21110;-49
2021/09/03 00:41:55;;;;;;;5.95;2.77;;;;;;;19.35;46.58;101953.71;1465181;96;21125;-49
2021/09/03 00:44:21;;;;;;;4.95;2.58;;;;;;;19.38;46.60;101962.84;1472481;96;21641;-49
2021/09/03 00:46:49;;;;;;;4.00;2.47;;;;;;;19.41;46.54;101956.11;1477480;96;21171;-48
2021/09/03 00:49:15;;;;;;;4.75;2.70;;;;;;;19.45;46.56;101959.02;1473004;96;21148;-48
2021/09/03 00:51:42;;;;;;;4.28;2.47;;;;;;;19.47;46.49;101957.19;1481354;96;21596;-48
2021/09/03 00:54:10;;;;;;;4.40;2.62;;;;;;;19.50;46.34;101960.17;1500978;92;21177;-49
2021/09/03 00:56:38;;;;;;;5.87;2.67;;;;;;;19.51;46.23;101960.59;1527942;92;21632;-49
2021/09/03 00:59:05;;;;;;;4.25;2.67;;;;;;;19.53;46.19;101957.42;1545037;91;21060;-48
2021/09/03 01:01:33;;;;;;;4.72;2.10;;;;;;;19.53;46.09;101959.20;1590786;88;21614;-48
2021/09/03 01:04:00;;;;;;;5.00;2.25;;;;;;;19.53;46.16;101969.76;1633158;87;21110;-48
2021/09/03 01:06:27;;;;;;;5.90;2.50;;;;;;;19.53;46.07;101972.40;1731652;80;21482;-49
2021/09/03 01:08:55;;;;;;;4.90;2.40;;;;;;;19.52;46.01;101978.58;1757858;80;21070;-48
2021/09/03 01:11:22;;;;;;;5.15;2.40;;;;;;;19.49;45.97;101975.14;1768414;80;21034;-48
2021/09/03 01:13:50;;;;;;;4.17;2.22;;;;;;;19.47;46.04;101980.95;1763609;80;21508;-48
2021/09/03 01:16:18;;;;;;;5.37;2.77;;;;;;;19.45;46.15;101972.22;1750409;80;21602;-48
2021/09/03 01:18:46;;;;;;;2.90;1.77;;;;;;;19.42;46.30;101971.05;1779521;80;20996;-48
2021/09/03 01:21:13;;;;;;;5.30;2.30;;;;;;;19.40;46.52;101968.92;1743335;80;21027;-48
2021/09/03 01:23:40;;;;;;;6.28;2.65;;;;;;;19.41;46.49;101969.30;1748521;80;21086;-48
2021/09/03 01:26:06;;;;;;;5.37;2.37;;;;;;;19.40;46.38;101966.28;1755649;80;21024;-48
2021/09/03 01:28:33;;;;;;;4.12;2.60;;;;;;;19.38;46.25;101966.80;1733714;80;21023;-48
2021/09/03 01:31:00;;;;;;;4.30;2.05;;;;;;;19.36;46.41;101960.73;1759850;80;21081;-48
2021/09/03 01:33:27;;;;;;;3.25;2.00;;;;;;;19.33;46.61;101963.47;1749702;80;21043;-48
2021/09/03 01:35:55;;;;;;;3.42;2.40;;;;;;;19.31;46.72;101957.36;1777385;80;21034;-48
2021/09/03 01:38:22;;;;;;;5.10;2.42;;;;;;;19.30;46.67;101971.48;1777641;80;21514;-48
2021/09/03 01:40:50;;;;;;;3.02;2.08;;;;;;;19.28;46.71;101960.13;1783990;80;21081;-48
2021/09/03 01:43:16;;;;;;;4.45;2.22;;;;;;;19.28;46.67;101972.45;1758940;80;21022;-49
2021/09/03 01:45:43;;;;;;;2.52;1.87;;;;;;;19.27;46.89;101968.95;1770534;80;21064;-48
2021/09/03 01:48:10;;;;;;;3.58;2.10;;;;;;;19.24;47.02;101966.45;1757895;80;21526;-48
2021/09/03 01:50:36;;;;;;;2.95;2.20;;;;;;;19.22;47.30;101967.42;1770199;80;21007;-48
2021/09/03 01:53:03;;;;;;;4.15;1.85;;;;;;;19.20;47.46;101967.94;1764736;80;21532;-48
2021/09/03 01:55:31;;;;;;;2.10;1.60;;;;;;;19.16;47.40;101969.84;1753818;80;21038;-48
2021/09/03 01:57:59;;;;;;;4.75;2.40;;;;;;;19.11;47.59;101969.14;1775323;80;21011;-48
2021/09/03 02:00:26;;;;;;;3.05;2.33;;;;;;;19.09;47.77;101967.02;1752974;80;21026;-48
2021/09/03 02:02:52;;;;;;;2.90;1.95;;;;;;;19.06;47.65;101961.84;1748929;80;21054;-48
2021/09/03 02:05:20;;;;;;;4.45;2.25;;;;;;;19.06;47.76;101964.48;1743197;80;21113;-49
2021/09/03 02:07:47;;;;;;;3.52;2.00;;;;;;;19.01;47.61;101965.13;1743753;80;21146;-48
2021/09/03 02:10:14;;;;;;;4.22;2.52;;;;;;;18.95;47.67;101969.32;1741048;80;21057;-49
2021/09/03 02:12:40;;;;;;;4.03;2.22;;;;;;;18.92;47.78;101965.45;1739506;81;21091;-48
2021/09/03 02:15:09;;;;;;;5.78;2.95;;;;;;;18.91;47.91;101962.44;1746391;81;21050;-49
2021/09/03 02:17:37;;;;;;;5.17;2.25;;;;;;;18.90;47.91;101965.98;1770977;80;21490;-48
2021/09/03 02:20:07;;;;;;;3.52;2.12;;;;;;;18.88;47.98;101965.63;1771508;80;21026;-49
2021/09/03 02:22:35;;;;;;;2.90;2.05;;;;;;;18.88;48.27;101964.30;1771932;80;20999;-48
2021/09/03 02:25:01;;;;;;;3.72;1.98;;;;;;;18.87;48.54;101963.47;1763480;80;21556;-48
2021/09/03 02:27:28;;;;;;;3.72;2.05;;;;;;;18.90;48.44;101962.50;1771599;80;21051;-48
2021/09/03 02:29:55;;;;;;;3.10;2.02;;;;;;;18.90;48.58;101963.34;1740858;80;21012;-48
2021/09/03 02:32:21;;;;;;;5.87;1.98;;;;;;;18.92;48.60;101964.14;1771347;80;21037;-48
2021/09/03 02:34:48;;;;;;;3.65;2.05;;;;;;;18.94;48.78;101963.62;1783992;80;21045;-48
2021/09/03 02:37:15;;;;;;;5.55;2.02;;;;;;;18.93;49.01;101963.24;1777738;80;21093;-49
2021/09/03 02:39:42;;;;;;;3.20;2.15;;;;;;;18.92;48.98;101970.73;1769861;80;21112;-48
2021/09/03 02:42:09;;;;;;;4.37;2.35;;;;;;;18.92;48.83;101961.50;1752344;80;20987;-49
2021/09/03 02:44:36;;;;;;;3.87;2.10;;;;;;;18.94;48.71;101964.11;1762266;80;21068;-49
2021/09/03 02:47:04;;;;;;;3.37;2.05;;;;;;;18.91;48.89;101962.44;1755026;80;21050;-48
2021/09/03 02:49:31;;;;;;;3.30;1.80;;;;;;;18.92;48.82;101961.50;1758946;81;21003;-48
2021/09/03 02:51:57;;;;;;;3.80;2.02;;;;;;;18.93;48.91;101963.24;1765483;80;21558;-49
2021/09/03 02:54:24;;;;;;;3.15;2.25;;;;;;;18.95;49.19;101969.32;1770844;80;21034;-49
2021/09/03 02:56:51;;;;;;;3.05;1.82;;;;;;;18.95;49.01;101965.36;1746904;80;21066;-48
2021/09/03 02:59:18;;;;;;;4.05;1.75;;;;;;;18.93;49.01;101962.37;1767268;80;21495;-48
2021/09/03 03:01:44;;;;;;;3.12;1.90;;;;;;;18.91;49.23;101961.12;1736821;80;21004;-48
2021/09/03 03:04:11;;;;;;;4.37;2.25;;;;;;;18.89;49.00;101960.31;1751174;80;21519;-48
2021/09/03 03:06:39;;;;;;;3.55;1.95;;;;;;;18.85;48.99;101963.98;1760006;80;21042;-48
2021/09/03 03:09:06;;;;;;;2.75;1.92;;;;;;;18.84;48.80;101968.84;1773898;80;21089;-49
2021/09/03 03:11:35;;;;;;;3.25;1.80;;;;;;;18.82;48.53;101964.08;1751579;80;21033;-48
2021/09/03 03:14:09;;;;;;;4.22;2.20;;;;;;;18.81;48.65;101972.92;1747581;80;21085;-48
2021/09/03 03:16:32;;;;;;;3.55;1.67;;;;;;;18.79;48.59;101962.02;1756758;80;21018;-48
2021/09/03 03:18:59;;;;;;;4.20;2.27;;;;;;;18.75;48.79;101971.83;1754705;80;21564;-48
2021/09/03 03:21:28;;;;;;;3.58;2.00;;;;;;;18.76;49.05;101977.49;1765158;80;21038;-48
2021/09/03 03:23:55;;;;;;;4.17;2.20;;;;;;;18.75;49.35;101988.97;1774981;80;21062;-48
2021/09/03 03:26:21;;;;;;;3.55;1.80;;;;;;;18.75;48.86;101988.97;1765625;80;21506;-48
2021/09/03 03:28:48;;;;;;;2.83;2.10;;;;;;;18.74;48.88;101993.83;1737455;80;20999;-49
2021/09/03 03:31:15;;;;;;;4.65;2.27;;;;;;;18.73;48.61;101997.39;1748277;80;21067;-48
2021/09/03 03:33:41;;;;;;;5.70;2.15;;;;;;;18.68;48.26;101988.78;1761950;80;21490;-49
2021/09/03 03:36:10;;;;;;;3.15;1.92;;;;;;;18.64;48.42;101985.84;1758634;80;20987;-48
2021/09/03 03:38:36;;;;;;;5.08;1.90;;;;;;;18.62;48.62;101983.27;1778722;80;21014;-48
2021/09/03 03:41:03;;;;;;;4.97;1.95;;;;;;;18.59;48.93;101983.81;1779537;80;21120;-48
2021/09/03 03:43:31;;;;;;;5.42;2.40;;;;;;;18.58;48.89;101985.62;1764565;80;21056;-48
2021/09/03 03:45:57;;;;;;;2.52;1.75;;;;;;;18.59;49.11;101989.09;1741129;80;21008;-48
2021/09/03 03:48:26;;;;;;;2.65;1.70;;;;;;;18.60;49.04;101973.69;1742376;80;21101;-48
2021/09/03 03:50:52;;;;;;;2.42;1.90;;;;;;;18.58;49.11;101972.44;1755998;80;21506;-48
2021/09/03 03:53:19;;;;;;;4.17;2.00;;;;;;;18.58;49.35;101970.25;1759880;80;21046;-48
2021/09/03 03:55:46;;;;;;;2.80;2.37;;;;;;;18.58;49.42;101976.84;1774042;80;21003;-48
2021/09/03 03:58:13;;;;;;;3.80;2.02;;;;;;;18.55;49.50;101987.48;1753174;80;21039;-48
2021/09/03 04:00:39;;;;;;;7.67;2.22;;;;;;;18.55;49.83;101991.43;1741609;80;20994;-48
2021/09/03 04:03:06;;;;;;;2.00;1.70;;;;;;;18.54;49.73;101994.55;1775400;80;21525;-48
2021/09/03 04:05:33;;;;;;;2.55;1.77;;;;;;;18.54;50.05;101997.63;1764735;80;21103;-48
2021/09/03 04:08:00;;;;;;;2.92;1.87;;;;;;;18.54;49.99;102004.22;1754207;80;21492;-49
2021/09/03 04:10:26;;;;;;;3.12;1.87;;;;;;;18.54;49.77;102005.54;1761196;80;21026;-48
2021/09/03 04:12:53;;;;;;;2.45;1.90;;;;;;;18.56;49.64;102016.45;1749722;80;21039;-48
2021/09/03 04:15:20;;;;;;;3.27;2.20;;;;;;;18.59;49.58;102018.09;1740721;80;21530;-49
2021/09/03 04:17:49;;;;;;;4.15;2.33;;;;;;;18.62;49.41;102019.31;1761774;80;21548;-48
2021/09/03 04:20:16;;;;;;;3.08;1.98;;;;;;;18.60;49.32;102025.09;1763282;80;21094;-49
2021/09/03 04:22:43;;;;;;;6.37;2.67;;;;;;;18.60;49.23;102030.37;1749412;80;20999;-49
2021/09/03 04:25:11;;;;;;;7.25;2.50;;;;;;;18.58;49.03;102037.47;1745552;80;21038;-48
2021/09/03 04:27:39;;;;;;;3.42;2.12;;;;;;;18.57;49.13;102050.23;1758501;80;21022;-48
2021/09/03 04:30:06;;;;;;;4.53;2.37;;;;;;;18.57;49.21;102051.55;1752776;80;21027;-48
2021/09/03 04:32:33;;;;;;;4.67;3.08;;;;;;;18.56;48.82;102053.80;1756627;80;21580;-50
2021/09/03 04:35:00;;;;;;;2.95;2.22;;;;;;;18.55;48.87;102056.87;1754286;80;21007;-49
2021/09/03 04:37:27;;;;;;;5.83;2.40;;;;;;;18.58;48.87;102061.20;1756717;80;21700;-49
2021/09/03 04:39:55;;;;;;;7.10;2.77;;;;;;;18.63;48.79;102064.52;1745629;80;21031;-49
2021/09/03 04:42:22;;;;;;;6.17;2.45;;;;;;;18.68;48.86;102067.42;1778003;80;21026;-49
2021/09/03 04:44:48;;;;;;;3.75;2.50;;;;;;;18.76;48.76;102068.47;1759679;80;21055;-48
2021/09/03 04:47:17;;;;;;;3.45;2.42;;;;;;;18.80;48.79;102067.44;1755594;80;21095;-48
2021/09/03 04:49:43;;;;;;;6.80;3.10;;;;;;;18.85;48.79;102069.92;1763962;80;21050;-48
2021/09/03 04:52:10;;;;;;;6.87;3.08;;;;;;;18.89;48.77;102072.41;1752609;80;21055;-48
2021/09/03 04:54:36;;;;;;;3.98;2.50;;;;;;;18.95;48.71;102074.83;1765222;80;21066;-49
2021/09/03 04:57:03;;;;;;;5.30;2.30;;;;;;;19.01;48.47;102074.61;1770523;80;21057;-48
2021/09/03 04:59:30;;;;;;;5.65;2.62;;;;;;;19.06;48.48;102076.60;1771728;80;21022;-48
2021/09/03 05:01:57;;;;;;;4.92;2.70;;;;;;;19.12;48.36;102074.23;1766332;80;21072;-48
2021/09/03 05:04:24;;;;;;;6.50;2.45;;;;;;;19.15;48.27;102076.28;1751211;81;21015;-48
2021/09/03 05:06:52;;;;;;;4.33;2.17;;;;;;;19.18;48.31;102079.28;1764971;80;21657;-48
2021/09/03 05:09:19;;;;;;;6.28;2.42;;;;;;;19.24;48.21;102083.88;1750755;80;21021;-48
2021/09/03 05:11:48;;;;;;;4.65;2.65;;;;;;;19.27;47.91;102073.64;1748052;80;21023;-48
2021/09/03 05:14:14;;;;;;;3.05;1.90;;;;;;;19.31;47.57;102081.40;1749959;80;21486;-48
2021/09/03 05:16:43;;;;;;;4.35;2.40;;;;;;;19.32;47.23;102083.14;1763096;80;21027;-48
2021/09/03 05:19:10;;;;;;;3.83;2.00;;;;;;;19.30;47.12;102082.34;1752329;80;21058;-48
2021/09/03 05:21:37;;;;;;;2.75;2.00;;;;;;;19.28;46.94;102085.48;1755333;80;21545;-48
2021/09/03 05:24:05;;;;;;;3.40;2.05;;;;;;;19.25;46.88;102086.91;1743510;81;21034;-48
2021/09/03 05:26:32;;;;;;;5.45;2.50;;;;;;;19.23;46.64;102086.55;1752162;80;20990;-49
2021/09/03 05:28:58;;;;;;;3.33;2.25;;;;;;;19.19;47.00;102089.77;1701569;83;21026;-48
2021/09/03 05:31:26;;;;;;;3.45;2.15;;;;;;;19.21;47.04;102085.75;1719065;82;21011;-48
2021/09/03 05:33:53;;;;;;;4.47;2.50;;;;;;;19.21;47.19;102085.30;1709485;82;21063;-48
2021/09/03 05:36:22;;;;;;;2.75;1.95;;;;;;;19.20;47.24;102090.19;1768371;80;21058;-48
2021/09/03 05:38:50;;;;;;;3.87;2.33;;;;;;;19.21;47.23;102085.30;1770286;80;21066;-48
2021/09/03 05:41:17;;;;;;;4.53;2.92;;;;;;;19.24;47.23;102087.84;1747733;81;21058;-48
2021/09/03 05:43:44;;;;;;;3.65;2.22;;;;;;;19.28;47.21;102086.81;1754285;81;20983;-48
2021/09/03 05:46:10;;;;;;;7.35;2.92;;;;;;;19.32;47.24;102089.73;1737444;80;21056;-49
2021/09/03 05:48:37;;;;;;;2.30;2.00;;;;;;;19.38;47.02;102090.86;1757250;80;21056;-49
2021/09/03 05:51:04;;;;;;;3.22;1.90;;;;;;;19.43;46.69;102090.22;1700632;83;21106;-49
2021/09/03 05:53:31;;;;;;;3.55;2.30;;;;;;;19.47;46.56;102093.14;1717705;82;21034;-49
2021/09/03 05:55:59;;;;;;;5.42;2.17;;;;;;;19.51;46.53;102085.98;1769243;80;21030;-49
2021/09/03 05:58:26;;;;;;;3.15;2.12;;;;;;;19.55;46.60;102085.41;1750572;80;21015;-49
2021/09/03 06:00:54;;;;;;;5.50;1.82;;;;;;;19.58;46.78;102074.74;1750613;80;21094;-50
2021/09/03 06:03:21;;;;;;;7.87;2.37;;;;;;;19.65;46.66;102080.17;1752706;80;21018;-49
2021/09/03 06:05:48;;;;;;;6.78;2.02;;;;;;;19.75;46.60;102074.48;1755120;80;21052;-49
2021/09/03 06:08:14;;;;;;;5.87;1.87;;;;;;;19.97;46.32;102075.84;1769251;80;21490;-48
2021/09/03 06:10:41;;;;;;;3.20;2.20;;;;;;;20.22;45.77;102067.33;1755930;80;21070;-49
2021/09/03 06:13:08;;;;;;;3.67;2.30;;;;;;;20.46;45.32;102071.63;1749653;80;21057;-48
2021/09/03 06:15:36;;;;;;;4.03;2.02;;;;;;;20.60;45.34;102070.58;1749699;81;21003;-48
2021/09/03 06:18:03;;;;;;;3.90;1.98;;;;;;;20.70;45.03;102075.87;1775853;80;21452;-48
2021/09/03 06:20:30;;;;;;;3.30;1.98;;;;;;;20.81;44.99;102080.70;1767007;80;21011;-48
2021/09/03 06:22:56;;;;;;;4.15;2.05;;;;;;;20.91;44.88;102085.53;1782977;79;20998;-50
2021/09/03 06:25:23;;;;;;;4.15;2.10;;;;;;;20.95;44.80;102084.47;1764336;80;22206;-49
2021/09/03 06:27:49;;;;;;;3.00;1.90;;;;;;;20.94;44.64;102087.16;1766396;79;21071;-49
2021/09/03 06:30:17;;;;;;;2.55;1.95;;;;;;;20.94;44.58;102088.03;1756213;80;20983;-49
2021/09/03 06:32:44;;;;;;;3.33;2.52;;;;;;;20.99;44.44;102087.37;1769133;80;21077;-49
2021/09/03 06:35:10;;;;;;;7.45;2.00;;;;;;;21.08;44.04;102086.61;1765629;80;21027;-49
2021/09/03 06:37:37;;;;;;;4.92;2.33;;;;;;;21.09;44.13;102082.56;1745250;80;21010;-49
2021/09/03 06:40:05;;;;;;;4.65;1.92;;;;;;;21.08;44.26;102089.63;1758221;80;21437;-49
2021/09/03 06:42:33;;;;;;;4.25;2.10;;;;;;;21.05;43.96;102084.95;1718682;80;20979;-49
2021/09/03 06:45:00;;;;;;;2.75;2.30;;;;;;;21.03;44.33;102092.09;1761696;80;21006;-50
2021/09/03 06:47:27;;;;;;;5.00;2.35;;;;;;;21.02;44.32;102098.30;1745001;80;21065;-49
2021/09/03 06:49:56;;;;;;;4.87;1.82;;;;;;;21.00;44.04;102100.13;1745158;80;21164;-49
2021/09/03 06:52:30;;;;;;;3.20;1.90;;;;;;;20.98;43.89;102097.55;1770145;80;21073;-49
2021/09/03 06:55:00;;;;;;;2.72;2.05;;;;;;;20.93;43.80;102100.87;1742880;80;21477;-49
2021/09/03 06:57:27;;;;;;;2.83;1.90;;;;;;;20.89;43.58;102103.27;1771107;80;21563;-49
2021/09/03 06:59:53;;;;;;;6.03;2.27;;;;;;;20.87;43.99;102105.11;1719362;82;20995;-49
2021/09/03 07:02:20;;;;;;;4.10;2.10;;;;;;;20.85;44.58;102109.61;1713277;82;21016;-49
2021/09/03 07:04:47;;;;;;;4.40;2.08;;;;;;;20.84;44.81;102109.20;1718572;82;21031;-49
2021/09/03 07:07:13;;;;;;;2.60;1.72;;;;;;;20.85;45.20;102108.75;1707533;84;21482;-49
2021/09/03 07:09:42;;;;;;;2.95;1.80;;;;;;;20.85;44.89;102106.97;1704427;83;21064;-49
2021/09/03 07:12:09;;;;;;;4.05;2.40;;;;;;;20.84;45.13;102105.69;1717104;83;21137;-49
2021/09/03 07:14:38;;;;;;;3.60;1.95;;;;;;;20.83;44.91;102112.79;1698716;83;21063;-49
2021/09/03 07:17:06;;;;;;;3.42;2.00;;;;;;;20.85;44.98;102118.88;1711321;84;21057;-49
2021/09/03 07:19:34;;;;;;;3.22;2.35;;;;;;;20.88;44.73;102124.47;1694658;84;21531;-49
2021/09/03 07:22:03;;;;;;;5.15;2.42;;;;;;;20.88;44.98;102127.98;1698964;83;21045;-49
2021/09/03 07:24:30;;;;;;;3.80;2.20;;;;;;;20.92;44.81;102132.22;1709838;83;21591;-49
2021/09/03 07:26:58;;;;;;;3.17;1.87;;;;;;;20.96;45.02;102130.29;1696719;83;21047;-49
2021/09/03 07:29:24;;;;;;;4.08;2.17;;;;;;;21.01;44.83;102123.89;1704504;84;21536;-48
2021/09/03 07:31:51;;;;;;;2.33;1.70;;;;;;;21.08;44.42;102126.31;1710062;83;21001;-49
2021/09/03 07:34:18;;;;;;;4.92;2.05;;;;;;;21.14;44.29;102124.26;1703426;83;21550;-49
2021/09/03 07:36:44;;;;;;;2.50;1.67;;;;;;;21.17;44.16;102128.08;1730542;81;21022;-49
2021/09/03 07:39:13;;;;;;;7.15;1.80;;;;;;;21.19;43.29;102126.68;1764140;80;21560;-49
2021/09/03 07:41:39;;;;;;;2.85;1.42;;;;;;;21.20;43.10;102125.31;1756161;80;21555;-49
2021/09/03 07:44:06;;;;;;;4.22;1.80;;;;;;;21.21;43.21;102123.50;1743617;80;21015;-49
2021/09/03 07:46:33;;;;;;;3.02;1.50;;;;;;;21.23;43.17;102123.83;1739046;80;21606;-48
2021/09/03 07:49:01;;;;;;;2.77;1.50;;;;;;;21.26;43.46;102129.47;1771727;80;21006;-48
2021/09/03 07:51:28;;;;;;;2.85;1.85;;;;;;;21.27;43.30;102117.47;1745959;80;21055;-49
2021/09/03 07:53:56;;;;;;;2.27;1.72;;;;;;;21.30;43.61;102116.48;1750796;80;21094;-49
2021/09/03 07:56:22;;;;;;;3.80;1.90;;;;;;;21.35;43.23;102117.16;1737782;80;21046;-49
2021/09/03 07:58:49;;;;;;;2.85;1.40;;;;;;;21.36;42.81;102115.75;1742442;80;21015;-48
2021/09/03 08:01:16;;;;;;;2.40;1.50;;;;;;;21.39;42.76;102110.79;1757498;80;20982;-48
2021/09/03 08:03:43;;;;;;;1.87;1.45;;;;;;;21.44;43.13;102111.42;1740230;80;20979;-49
2021/09/03 08:06:09;;;;;;;4.08;1.25;;;;;;;21.46;42.27;102109.56;1761978;80;21494;-48
2021/09/03 08:08:36;;;;;;;3.83;1.80;;;;;;;21.49;42.05;102110.77;1783506;80;21030;-48
2021/09/03 08:11:03;;;;;;;2.47;1.35;;;;;;;21.52;41.52;102111.93;1770055;80;21022;-48
2021/09/03 08:13:31;;;;;;;2.47;1.40;;;;;;;21.55;40.75;102111.80;1748712;80;21507;-48
2021/09/03 08:16:02;;;;;;;1.55;1.07;;;;;;;21.57;40.64;102114.78;1768036;80;21014;-48
2021/09/03 08:18:30;;;;;;;2.72;1.15;;;;;;;21.60;40.38;102105.36;1767348;80;21066;-48
2021/09/03 08:20:58;;;;;;;4.62;1.10;;;;;;;21.64;39.34;102107.39;1737926;80;21068;-48
2021/09/03 08:23:27;;;;;;;1.70;1.10;;;;;;;21.68;39.24;102104.99;1742126;80;21487;-48
2021/09/03 08:25:54;;;;;;;1.50;1.02;;;;;;;21.73;38.49;102097.24;1752553;80;21051;-48
2021/09/03 08:28:21;;;;;;;4.67;1.25;;;;;;;21.78;38.38;102102.34;1739657;81;21021;-48
2021/09/03 08:30:48;;;;;;;3.30;1.20;;;;;;;21.81;37.86;102092.90;1750591;80;21058;-49
2021/09/03 08:33:15;;;;;;;1.27;0.82;;;;;;;21.85;37.61;102098.02;1777125;80;21105;-49
2021/09/03 08:35:42;;;;;;;2.25;0.95;;;;;;;21.90;36.63;102086.34;1764560;80;21026;-48
2021/09/03 08:38:09;;;;;;;4.22;1.00;;;;;;;21.93;36.47;102086.22;1773063;80;21121;-48
2021/09/03 08:40:37;;;;;;;2.58;1.00;;;;;;;21.97;36.30;102082.48;1717576;80;21034;-49
2021/09/03 08:43:04;;;;;;;2.27;1.10;;;;;;;21.99;34.85;102073.50;1742781;81;21124;-50
2021/09/03 08:45:33;;;;;;;2.58;0.82;;;;;;;22.02;34.91;102073.37;1760423;80;21026;-49
2021/09/03 08:47:59;;;;;;;1.62;0.88;;;;;;;22.08;35.29;102074.39;1752853;80;21002;-49
2021/09/03 08:50:26;;;;;;;1.85;0.80;;;;;;;22.13;34.72;102076.36;1749995;81;21534;-49
2021/09/03 08:52:54;;;;;;;2.17;1.10;;;;;;;22.18;34.46;102067.70;1758951;80;21022;-49
2021/09/03 08:55:21;;;;;;;1.12;0.80;;;;;;;22.23;34.39;102066.16;1779870;80;21038;-49
2021/09/03 08:57:50;;;;;;;2.98;0.93;;;;;;;22.28;33.95;102068.97;1762563;80;22360;-49
2021/09/03 09:00:23;;;;;;;4.12;0.93;;;;;;;22.32;34.22;102070.53;1746284;80;21471;-51
2021/09/03 09:03:15;;;;;;;3.70;0.72;;;;;;;22.36;34.32;102063.30;1763240;80;21541;-49
2021/09/03 09:05:56;;;;;;;2.47;0.98;;;;;;;22.40;33.92;102059.06;1752074;80;21109;-49
2021/09/03 09:08:25;;;;;;;3.15;2.40;;;;;;;22.47;34.33;102059.62;1769869;80;21042;-49
2021/09/03 09:10:59;;;;;;;1.87;1.35;;;;;;;22.52;34.74;102051.81;1768151;80;21101;-49
2021/09/03 09:13:33;;;;;;;2.30;1.17;;;;;;;22.57;34.79;102047.14;1756360;81;21083;-49
2021/09/03 09:16:17;;;;;;;1.25;1.15;;;;;;;22.62;34.83;102045.16;1757482;80;21025;-49
2021/09/03 09:18:51;;;;;;;1.67;1.10;;;;;;;22.68;35.13;102045.77;1776150;80;21017;-48
2021/09/03 09:21:29;;;;;;;2.60;1.40;;;;;;;22.72;34.85;102040.69;1725327;82;21109;-49
2021/09/03 09:24:08;;;;;;;3.15;1.72;;;;;;;22.76;34.62;102043.56;1721824;82;21592;-48
2021/09/03 09:26:57;;;;;;;3.17;1.65;;;;;;;22.77;34.97;102047.49;1673473;84;21018;-49
2021/09/03 09:29:31;;;;;;;2.05;1.35;;;;;;;22.79;35.56;102042.09;1685376;84;21080;-48
2021/09/03 09:32:08;;;;;;;3.35;1.10;;;;;;;22.82;35.94;102037.94;1676512;84;21565;-48
2021/09/03 09:34:43;;;;;;;2.98;1.77;;;;;;;22.87;35.71;102047.86;1590691;88;21066;-48
2021/09/03 09:37:17;;;;;;;1.80;1.10;;;;;;;22.90;35.51;102048.55;1638354;87;21049;-48
2021/09/03 09:39:57;;;;;;;1.60;1.10;;;;;;;22.94;35.16;102043.92;1630655;86;21097;-48
2021/09/03 09:42:28;;;;;;;1.77;1.20;;;;;;;22.98;34.73;102037.55;1606401;89;21593;-48
2021/09/03 09:45:10;;;;;;;1.45;1.02;;;;;;;23.00;33.66;102043.63;1587898;89;21090;-48
2021/09/03 09:47:38;;;;;;;1.25;0.90;;;;;;;23.01;33.68;102045.33;1593657;89;21117;-48
2021/09/03 09:50:28;;;;;;;2.67;1.10;;;;;;;23.05;32.76;102038.92;1591158;89;21086;-48
2021/09/03 09:53:12;;;;;;;4.12;1.10;;;;;;;23.08;32.55;102037.44;1603584;89;21097;-48
2021/09/03 09:55:39;;;;;;;2.02;1.20;;;;;;;23.09;32.02;102032.50;1596317;88;21102;-48
2021/09/03 09:58:06;;;;;;;1.30;1.07;;;;;;;23.09;32.66;102039.14;1588954;89;21018;-49
2021/09/03 10:00:35;;;;;;;1.12;1.00;;;;;;;23.10;33.12;102027.59;1588989;89;21148;-49
2021/09/03 10:03:03;;;;;;;4.67;1.25;;;;;;;23.11;32.95;102025.31;1589358;89;21055;-49
2021/09/03 10:05:30;;;;;;;2.83;1.17;;;;;;;23.14;32.79;102025.16;1596169;88;21600;-49
2021/09/03 10:07:57;;;;;;;4.25;1.12;;;;;;;23.18;32.79;102024.92;1640364;86;21061;-49
2021/09/03 10:10:24;;;;;;;2.77;1.12;;;;;;;23.25;32.98;102021.44;1645125;85;21097;-49
2021/09/03 10:12:50;;;;;;;2.75;1.10;;;;;;;23.29;32.36;102024.31;1718440;82;21628;-50
2021/09/03 10:15:18;;;;;;;3.83;1.22;;;;;;;23.34;32.16;102023.64;1733507;81;21069;-50
2021/09/03 10:17:46;;;;;;;5.83;1.75;;;;;;;23.39;32.26;102017.58;1731057;81;21027;-49
2021/09/03 10:20:13;;;;;;;4.72;1.30;;;;;;;23.42;31.44;102014.77;1709989;82;21091;-49
2021/09/03 10:22:44;;;;;;;2.87;1.20;;;;;;;23.44;31.38;102012.89;1723218;82;21023;-48
2021/09/03 10:25:12;;;;;;;2.35;1.47;;;;;;;23.47;31.51;102015.39;1722946;82;21055;-50
2021/09/03 10:27:39;;;;;;;7.25;1.75;;;;;;;23.49;31.57;102009.98;1696712;83;21118;-49
2021/09/03 10:30:15;;;;;;;3.70;1.20;;;;;;;23.53;31.36;102000.44;1691964;83;22035;-49
2021/09/03 10:32:42;;;;;;;2.02;0.98;;;;;;;23.58;31.56;102005.00;1613136;87;21126;-49
2021/09/03 10:35:18;;;;;;;3.22;0.90;;;;;;;23.61;31.28;102002.19;1609883;87;21089;-49
2021/09/03 10:37:45;;;;;;;1.85;1.30;;;;;;;23.65;31.86;102001.07;1621237;87;21135;-48
2021/09/03 10:40:18;;;;;;;3.27;1.30;;;;;;;23.72;31.72;102017.03;1626725;87;21097;-49
2021/09/03 10:42:48;;;;;;;1.35;1.00;;;;;;;23.77;31.59;102008.34;1567444;90;21098;-49
2021/09/03 10:45:30;;;;;;;2.00;0.90;;;;;;;23.82;31.64;101994.30;1585713;90;21049;-49
2021/09/03 10:48:03;;;;;;;2.58;1.12;;;;;;;23.87;31.84;101997.56;1587883;90;21642;-48
2021/09/03 10:53:37;;;;;;;2.42;1.05;;;;;;;23.93;31.10;102001.20;1539901;92;21154;-49
2021/09/03 10:56:16;;;;;;;5.47;1.40;;;;;;;23.94;30.44;101997.61;1524470;93;21075;-48
2021/09/03 10:58:57;;;;;;;2.70;1.30;;;;;;;23.95;30.86;102004.62;1544195;92;21110;-49
2021/09/03 11:01:30;;;;;;;2.70;1.10;;;;;;;23.97;30.81;101999.21;1493000;95;21526;-48
2021/09/03 11:04:12;;;;;;;0.98;0.90;;;;;;;24.00;30.63;101997.25;1472739;95;21081;-50
2021/09/03 11:06:52;;;;;;;1.27;0.80;;;;;;;24.02;30.42;101995.36;1482575;95;21311;-50
2021/09/03 11:09:25;;;;;;;2.35;1.35;;;;;;;24.03;30.46;101997.09;1440835;98;21577;-49
2021/09/03 11:12:05;;;;;;;3.90;1.27;;;;;;;24.04;30.51;101990.84;1479753;95;21062;-49
2021/09/03 11:14:31;;;;;;;3.98;1.20;;;;;;;24.06;30.55;101986.30;1487341;95;21334;-49
2021/09/03 11:17:04;;;;;;;2.40;1.20;;;;;;;24.08;29.95;101976.42;1465550;96;21158;-48
2021/09/03 11:19:37;;;;;;;2.85;1.30;;;;;;;24.09;30.09;101976.79;1454669;97;21171;-49
2021/09/03 11:22:18;;;;;;;1.52;1.00;;;;;;;24.12;29.94;101980.61;1400973;101;21113;-50
2021/09/03 11:24:49;;;;;;;2.52;0.93;;;;;;;24.12;29.95;101973.97;1396282;101;21168;-49
2021/09/03 11:27:19;;;;;;;2.75;1.47;;;;;;;24.14;30.08;101973.41;1399336;100;21116;-49
2021/09/03 11:29:50;;;;;;;2.60;1.92;;;;;;;24.18;30.51;101971.41;1365685;104;21592;-49
2021/09/03 11:32:28;;;;;;;18.27;6.97;;;;;;;24.20;30.65;101961.06;1355980;104;21137;-49